sensor_id;sensor_type;location;lat;lon;timestamp;pressure;altitude;pressure_sealevel;temperature;humidity
44027;BME280;29696;55.698;37.460;2023-05-12T00:01:06;100129.41;;;9.64;74.39
44027;BME280;29696;55.698;37.460;2023-05-12T00:03:32;100121.81;;;9.59;74.30
44027;BME280;29696;55.698;37.460;2023-05-12T00:05:59;100124.59;;;9.58;74.51
44027;BME280;29696;55.698;37.460;2023-05-12T00:12:47;100131.28;;;9.51;74.14
44027;BME280;29696;55.698;37.460;2023-05-12T00:15:13;100121.09;;;9.46;73.84
44027;BME280;29696;55.698;37.460;2023-05-12T00:17:40;100127.28;;;9.45;74.08
44027;BME280;29696;55.698;37.460;2023-05-12T00:20:07;100126.59;;;9.43;74.01
44027;BME280;29696;55.698;37.460;2023-05-12T00:22:35;100127.88;;;9.37;73.80
44027;BME280;29696;55.698;37.460;2023-05-12T00:25:01;100130.06;;;9.44;73.75
44027;BME280;29696;55.698;37.460;2023-05-12T00:27:28;100122.47;;;9.39;73.24
44027;BME280;29696;55.698;37.460;2023-05-12T00:29:57;100121.66;;;9.38;73.23
44027;BME280;29696;55.698;37.460;2023-05-12T00:32:24;100116.50;;;9.37;73.33
44027;BME280;29696;55.698;37.460;2023-05-12T00:34:51;100118.41;;;9.35;73.09
44027;BME280;29696;55.698;37.460;2023-05-12T00:37:19;100110.72;;;9.32;73.13
44027;BME280;29696;55.698;37.460;2023-05-12T00:39:46;100116.00;;;9.32;72.80
44027;BME280;29696;55.698;37.460;2023-05-12T00:42:12;100122.94;;;9.33;72.62
44027;BME280;29696;55.698;37.460;2023-05-12T00:44:39;100120.66;;;9.28;72.41
44027;BME280;29696;55.698;37.460;2023-05-12T00:47:07;100115.47;;;9.27;72.51
44027;BME280;29696;55.698;37.460;2023-05-12T00:49:34;100112.97;;;9.25;73.17
44027;BME280;29696;55.698;37.460;2023-05-12T00:52:01;100119.41;;;9.21;73.00
44027;BME280;29696;55.698;37.460;2023-05-12T00:54:29;100112.47;;;9.20;72.86
44027;BME280;29696;55.698;37.460;2023-05-12T00:56:56;100112.69;;;9.17;72.53
44027;BME280;29696;55.698;37.460;2023-05-12T00:59:23;100101.63;;;9.12;72.61
44027;BME280;29696;55.698;37.460;2023-05-12T01:01:49;100109.31;;;9.15;72.38
44027;BME280;29696;55.698;37.460;2023-05-12T01:04:16;100112.91;;;9.14;72.60
44027;BME280;29696;55.698;37.460;2023-05-12T01:10:03;100115.78;;;9.11;72.37
44027;BME280;29696;55.698;37.460;2023-05-12T01:12:33;100111.47;;;9.10;72.59
44027;BME280;29696;55.698;37.460;2023-05-12T01:15:00;100114.22;;;9.08;72.45
44027;BME280;29696;55.698;37.460;2023-05-12T01:17:30;100110.66;;;9.09;72.53
44027;BME280;29696;55.698;37.460;2023-05-12T01:20:02;100105.59;;;9.06;72.90
44027;BME280;29696;55.698;37.460;2023-05-12T01:22:32;100106.97;;;8.99;72.80
44027;BME280;29696;55.698;37.460;2023-05-12T01:25:04;100106.38;;;8.96;73.25
44027;BME280;29696;55.698;37.460;2023-05-12T01:27:32;100109.00;;;8.96;73.10
44027;BME280;29696;55.698;37.460;2023-05-12T01:30:02;100104.56;;;8.96;73.19
44027;BME280;29696;55.698;37.460;2023-05-12T01:32:34;100104.69;;;8.95;72.73
44027;BME280;29696;55.698;37.460;2023-05-12T01:35:03;100108.88;;;8.97;72.66
44027;BME280;29696;55.698;37.460;2023-05-12T01:37:32;100106.00;;;9.00;72.04
44027;BME280;29696;55.698;37.460;2023-05-12T01:40:00;100108.66;;;9.00;72.12
44027;BME280;29696;55.698;37.460;2023-05-12T01:42:31;100099.19;;;8.98;72.49
44027;BME280;29696;55.698;37.460;2023-05-12T01:44:58;100101.72;;;8.99;72.68
44027;BME280;29696;55.698;37.460;2023-05-12T01:47:25;100104.47;;;8.98;72.40
44027;BME280;29696;55.698;37.460;2023-05-12T01:49:59;100101.84;;;8.98;71.83
44027;BME280;29696;55.698;37.460;2023-05-12T01:52:26;100100.13;;;8.97;71.53
44027;BME280;29696;55.698;37.460;2023-05-12T01:54:53;100107.50;;;9.04;71.09
44027;BME280;29696;55.698;37.460;2023-05-12T01:57:21;100108.03;;;9.21;70.95
44027;BME280;29696;55.698;37.460;2023-05-12T01:59:49;100100.06;;;9.33;70.17
44027;BME280;29696;55.698;37.460;2023-05-12T02:02:15;100100.53;;;9.38;69.04
44027;BME280;29696;55.698;37.460;2023-05-12T02:04:42;100098.28;;;9.45;68.51
44027;BME280;29696;55.698;37.460;2023-05-12T02:07:08;100106.59;;;9.52;68.82
44027;BME280;29696;55.698;37.460;2023-05-12T02:09:35;100111.50;;;9.56;68.48
44027;BME280;29696;55.698;37.460;2023-05-12T02:12:03;100105.41;;;9.56;67.81
44027;BME280;29696;55.698;37.460;2023-05-12T02:14:30;100108.41;;;9.63;67.45
44027;BME280;29696;55.698;37.460;2023-05-12T02:16:58;100103.72;;;9.66;66.89
44027;BME280;29696;55.698;37.460;2023-05-12T02:19:25;100109.50;;;9.71;66.39
44027;BME280;29696;55.698;37.460;2023-05-12T02:21:56;100111.06;;;9.74;67.79
44027;BME280;29696;55.698;37.460;2023-05-12T02:24:23;100113.13;;;9.93;68.05
44027;BME280;29696;55.698;37.460;2023-05-12T02:26:49;100112.72;;;10.33;64.36
44027;BME280;29696;55.698;37.460;2023-05-12T02:29:16;100112.78;;;10.65;64.01
44027;BME280;29696;55.698;37.460;2023-05-12T02:31:42;100112.09;;;11.06;62.28
44027;BME280;29696;55.698;37.460;2023-05-12T02:34:15;100116.09;;;11.54;60.61
44027;BME280;29696;55.698;37.460;2023-05-12T02:36:42;100110.69;;;11.97;59.32
44027;BME280;29696;55.698;37.460;2023-05-12T02:39:08;100114.09;;;12.40;58.31
44027;BME280;29696;55.698;37.460;2023-05-12T02:41:35;100109.34;;;12.84;57.61
44027;BME280;29696;55.698;37.460;2023-05-12T02:44:02;100104.91;;;13.23;55.29
44027;BME280;29696;55.698;37.460;2023-05-12T02:46:28;100111.63;;;13.46;54.02
44027;BME280;29696;55.698;37.460;2023-05-12T02:48:55;100108.63;;;13.79;55.16
44027;BME280;29696;55.698;37.460;2023-05-12T02:51:22;100111.56;;;14.23;53.38
44027;BME280;29696;55.698;37.460;2023-05-12T02:53:48;100115.31;;;14.67;52.41
44027;BME280;29696;55.698;37.460;2023-05-12T02:56:16;100119.72;;;15.22;51.17
44027;BME280;29696;55.698;37.460;2023-05-12T02:58:42;100111.16;;;15.72;49.45
44027;BME280;29696;55.698;37.460;2023-05-12T03:01:09;100130.03;;;16.31;47.67
44027;BME280;29696;55.698;37.460;2023-05-12T03:03:36;100128.25;;;16.39;47.33
44027;BME280;29696;55.698;37.460;2023-05-12T03:06:03;100124.97;;;15.93;48.59
44027;BME280;29696;55.698;37.460;2023-05-12T03:08:30;100124.72;;;15.43;48.86
44027;BME280;29696;55.698;37.460;2023-05-12T03:10:56;100120.09;;;15.09;49.66
44027;BME280;29696;55.698;37.460;2023-05-12T03:13:23;100119.97;;;14.83;50.48
44027;BME280;29696;55.698;37.460;2023-05-12T03:15:50;100116.75;;;14.61;50.95
44027;BME280;29696;55.698;37.460;2023-05-12T03:18:16;100120.44;;;14.41;52.16
44027;BME280;29696;55.698;37.460;2023-05-12T03:20:43;100109.75;;;14.23;51.88
44027;BME280;29696;55.698;37.460;2023-05-12T03:23:09;100117.88;;;14.22;51.74
44027;BME280;29696;55.698;37.460;2023-05-12T03:25:35;100116.91;;;14.23;51.17
44027;BME280;29696;55.698;37.460;2023-05-12T03:28:02;100117.78;;;14.13;50.65
44027;BME280;29696;55.698;37.460;2023-05-12T03:30:29;100115.81;;;14.15;51.88
44027;BME280;29696;55.698;37.460;2023-05-12T03:32:55;100116.47;;;14.18;52.65
44027;BME280;29696;55.698;37.460;2023-05-12T03:35:22;100120.84;;;14.09;52.70
44027;BME280;29696;55.698;37.460;2023-05-12T03:37:49;100115.44;;;14.01;53.11
44027;BME280;29696;55.698;37.460;2023-05-12T03:40:15;100118.47;;;14.06;53.96
44027;BME280;29696;55.698;37.460;2023-05-12T03:42:44;100121.00;;;14.07;52.60
44027;BME280;29696;55.698;37.460;2023-05-12T03:45:11;100121.41;;;14.12;51.79
44027;BME280;29696;55.698;37.460;2023-05-12T03:47:38;100116.47;;;14.18;52.53
44027;BME280;29696;55.698;37.460;2023-05-12T03:50:06;100120.50;;;14.31;52.48
44027;BME280;29696;55.698;37.460;2023-05-12T03:52:33;100116.56;;;14.35;51.63
44027;BME280;29696;55.698;37.460;2023-05-12T03:55:02;100122.22;;;14.50;52.92
44027;BME280;29696;55.698;37.460;2023-05-12T03:57:30;100122.13;;;14.52;51.40
44027;BME280;29696;55.698;37.460;2023-05-12T03:59:57;100127.00;;;14.84;50.79
44027;BME280;29696;55.698;37.460;2023-05-12T04:02:24;100120.72;;;15.21;50.11
44027;BME280;29696;55.698;37.460;2023-05-12T04:04:51;100126.47;;;15.34;51.31
44027;BME280;29696;55.698;37.460;2023-05-12T04:07:17;100119.25;;;15.62;49.26
44027;BME280;29696;55.698;37.460;2023-05-12T04:09:44;100111.03;;;15.56;49.15
44027;BME280;29696;55.698;37.460;2023-05-12T04:12:10;100120.91;;;15.81;49.07
44027;BME280;29696;55.698;37.460;2023-05-12T04:14:36;100112.13;;;15.89;48.29
44027;BME280;29696;55.698;37.460;2023-05-12T04:17:04;100120.06;;;16.07;48.71
44027;BME280;29696;55.698;37.460;2023-05-12T04:19:30;100102.34;;;16.74;45.62
44027;BME280;29696;55.698;37.460;2023-05-12T04:21:56;100101.31;;;16.59;45.04
44027;BME280;29696;55.698;37.460;2023-05-12T04:24:23;100100.63;;;16.57;45.45
44027;BME280;29696;55.698;37.460;2023-05-12T04:26:51;100096.31;;;16.64;45.38
44027;BME280;29696;55.698;37.460;2023-05-12T04:29:17;100105.00;;;16.74;45.29
44027;BME280;29696;55.698;37.460;2023-05-12T04:31:44;100113.75;;;16.76;44.79
44027;BME280;29696;55.698;37.460;2023-05-12T04:34:10;100099.88;;;16.81;45.25
44027;BME280;29696;55.698;37.460;2023-05-12T04:36:37;100099.75;;;16.99;45.32
44027;BME280;29696;55.698;37.460;2023-05-12T04:39:04;100099.13;;;17.21;44.88
44027;BME280;29696;55.698;37.460;2023-05-12T04:41:31;100104.66;;;17.61;43.32
44027;BME280;29696;55.698;37.460;2023-05-12T04:43:58;100099.47;;;17.75;42.70
44027;BME280;29696;55.698;37.460;2023-05-12T04:46:25;100101.13;;;18.01;43.31
44027;BME280;29696;55.698;37.460;2023-05-12T04:48:52;100102.84;;;18.33;41.39
44027;BME280;29696;55.698;37.460;2023-05-12T04:51:18;100102.16;;;18.39;41.18
44027;BME280;29696;55.698;37.460;2023-05-12T04:53:45;100107.47;;;18.47;40.36
44027;BME280;29696;55.698;37.460;2023-05-12T04:56:11;100111.66;;;18.89;40.18
44027;BME280;29696;55.698;37.460;2023-05-12T04:58:38;100111.13;;;19.40;40.64
44027;BME280;29696;55.698;37.460;2023-05-12T05:01:05;100108.94;;;19.44;38.92
44027;BME280;29696;55.698;37.460;2023-05-12T05:03:33;100108.13;;;19.58;38.10
44027;BME280;29696;55.698;37.460;2023-05-12T05:06:00;100106.69;;;20.67;36.46
44027;BME280;29696;55.698;37.460;2023-05-12T05:08:27;100101.69;;;22.69;33.37
44027;BME280;29696;55.698;37.460;2023-05-12T05:10:53;100102.00;;;24.47;30.67
44027;BME280;29696;55.698;37.460;2023-05-12T05:13:20;100098.66;;;26.77;27.58
44027;BME280;29696;55.698;37.460;2023-05-12T05:15:51;100107.66;;;28.44;26.05
44027;BME280;29696;55.698;37.460;2023-05-12T05:18:17;100106.78;;;29.58;23.66
44027;BME280;29696;55.698;37.460;2023-05-12T05:20:44;100106.25;;;30.73;21.86
44027;BME280;29696;55.698;37.460;2023-05-12T05:23:11;100104.59;;;31.48;20.74
44027;BME280;29696;55.698;37.460;2023-05-12T05:25:38;100105.09;;;32.19;19.93
44027;BME280;29696;55.698;37.460;2023-05-12T05:28:05;100105.09;;;32.92;19.16
44027;BME280;29696;55.698;37.460;2023-05-12T05:30:32;100102.72;;;33.52;18.88
44027;BME280;29696;55.698;37.460;2023-05-12T05:33:00;100105.47;;;33.78;18.36
44027;BME280;29696;55.698;37.460;2023-05-12T05:35:27;100098.25;;;34.13;17.81
44027;BME280;29696;55.698;37.460;2023-05-12T05:37:54;100096.03;;;34.85;16.93
44027;BME280;29696;55.698;37.460;2023-05-12T05:40:21;100105.97;;;35.59;16.36
44027;BME280;29696;55.698;37.460;2023-05-12T05:42:48;100098.19;;;36.20;15.86
44027;BME280;29696;55.698;37.460;2023-05-12T05:45:15;100099.34;;;36.62;16.42
44027;BME280;29696;55.698;37.460;2023-05-12T05:47:41;100096.47;;;37.42;14.86
44027;BME280;29696;55.698;37.460;2023-05-12T05:50:09;100093.75;;;37.89;14.93
44027;BME280;29696;55.698;37.460;2023-05-12T05:52:39;100095.63;;;38.49;14.00
44027;BME280;29696;55.698;37.460;2023-05-12T05:55:06;100091.63;;;38.55;14.88
44027;BME280;29696;55.698;37.460;2023-05-12T05:57:33;100093.44;;;38.87;14.23
44027;BME280;29696;55.698;37.460;2023-05-12T06:00:00;100084.84;;;39.11;14.05
44027;BME280;29696;55.698;37.460;2023-05-12T06:02:27;100085.03;;;39.15;14.03
44027;BME280;29696;55.698;37.460;2023-05-12T06:04:53;100092.25;;;39.47;14.02
44027;BME280;29696;55.698;37.460;2023-05-12T06:07:19;100088.00;;;39.72;13.44
44027;BME280;29696;55.698;37.460;2023-05-12T06:09:47;100086.28;;;39.54;12.95
44027;BME280;29696;55.698;37.460;2023-05-12T06:12:13;100084.06;;;38.97;13.37
44027;BME280;29696;55.698;37.460;2023-05-12T06:14:40;100083.38;;;38.91;12.80
44027;BME280;29696;55.698;37.460;2023-05-12T06:17:06;100085.69;;;39.34;12.43
44027;BME280;29696;55.698;37.460;2023-05-12T06:19:32;100079.50;;;40.00;12.06
44027;BME280;29696;55.698;37.460;2023-05-12T06:22:00;100081.88;;;40.24;12.20
44027;BME280;29696;55.698;37.460;2023-05-12T06:24:26;100085.53;;;40.50;11.78
44027;BME280;29696;55.698;37.460;2023-05-12T06:26:53;100082.28;;;40.39;11.35
44027;BME280;29696;55.698;37.460;2023-05-12T06:29:19;100083.06;;;40.31;11.88
44027;BME280;29696;55.698;37.460;2023-05-12T06:31:46;100086.53;;;40.06;11.49
44027;BME280;29696;55.698;37.460;2023-05-12T06:34:14;100085.06;;;39.37;11.85
44027;BME280;29696;55.698;37.460;2023-05-12T06:36:40;100084.16;;;39.28;11.62
44027;BME280;29696;55.698;37.460;2023-05-12T06:39:07;100082.66;;;39.44;11.70
44027;BME280;29696;55.698;37.460;2023-05-12T06:41:33;100081.13;;;39.92;11.62
44027;BME280;29696;55.698;37.460;2023-05-12T06:44:00;100087.84;;;40.57;11.76
44027;BME280;29696;55.698;37.460;2023-05-12T06:46:28;100083.41;;;41.43;11.94
44027;BME280;29696;55.698;37.460;2023-05-12T06:48:54;100081.00;;;41.50;10.30
44027;BME280;29696;55.698;37.460;2023-05-12T06:51:21;100073.03;;;40.61;10.42
44027;BME280;29696;55.698;37.460;2023-05-12T06:53:48;100077.34;;;40.19;10.87
44027;BME280;29696;55.698;37.460;2023-05-12T06:56:14;100070.16;;;39.47;10.51
44027;BME280;29696;55.698;37.460;2023-05-12T06:58:42;100071.75;;;39.03;11.44
44027;BME280;29696;55.698;37.460;2023-05-12T07:01:09;100076.13;;;39.40;10.17
44027;BME280;29696;55.698;37.460;2023-05-12T07:03:35;100070.94;;;39.47;10.40
44027;BME280;29696;55.698;37.460;2023-05-12T07:06:02;100072.16;;;39.33;10.84
44027;BME280;29696;55.698;37.460;2023-05-12T07:08:28;100081.00;;;40.06;10.42
44027;BME280;29696;55.698;37.460;2023-05-12T07:10:54;100079.56;;;41.00;10.52
44027;BME280;29696;55.698;37.460;2023-05-12T07:13:21;100079.09;;;40.81;10.24
44027;BME280;29696;55.698;37.460;2023-05-12T07:15:47;100070.75;;;40.64;10.20
44027;BME280;29696;55.698;37.460;2023-05-12T07:18:14;100068.63;;;40.87;10.14
44027;BME280;29696;55.698;37.460;2023-05-12T07:20:40;100072.69;;;40.80;9.96
44027;BME280;29696;55.698;37.460;2023-05-12T07:23:07;100075.09;;;39.90;9.83
44027;BME280;29696;55.698;37.460;2023-05-12T07:25:34;100066.34;;;39.34;9.88
44027;BME280;29696;55.698;37.460;2023-05-12T07:28:00;100071.84;;;38.39;10.75
44027;BME280;29696;55.698;37.460;2023-05-12T07:30:27;100064.34;;;38.53;11.30
44027;BME280;29696;55.698;37.460;2023-05-12T07:32:53;100055.53;;;39.01;11.00
44027;BME280;29696;55.698;37.460;2023-05-12T07:35:20;100066.91;;;38.86;10.47
44027;BME280;29696;55.698;37.460;2023-05-12T07:37:46;100063.66;;;38.70;10.35
44027;BME280;29696;55.698;37.460;2023-05-12T07:40:13;100062.22;;;37.95;11.04
44027;BME280;29696;55.698;37.460;2023-05-12T07:42:40;100058.75;;;37.43;11.04
44027;BME280;29696;55.698;37.460;2023-05-12T07:45:07;100057.44;;;38.14;11.04
44027;BME280;29696;55.698;37.460;2023-05-12T07:47:33;100051.50;;;38.21;10.50
44027;BME280;29696;55.698;37.460;2023-05-12T07:50:00;100053.22;;;38.81;10.73
44027;BME280;29696;55.698;37.460;2023-05-12T07:52:26;100047.19;;;39.24;10.12
44027;BME280;29696;55.698;37.460;2023-05-12T07:54:55;100058.16;;;39.29;10.25
44027;BME280;29696;55.698;37.460;2023-05-12T07:57:22;100051.75;;;39.20;10.76
44027;BME280;29696;55.698;37.460;2023-05-12T07:59:49;100053.44;;;39.52;9.90
44027;BME280;29696;55.698;37.460;2023-05-12T08:02:15;100053.91;;;37.81;9.67
44027;BME280;29696;55.698;37.460;2023-05-12T08:04:42;100053.72;;;37.12;10.36
44027;BME280;29696;55.698;37.460;2023-05-12T08:07:08;100046.06;;;36.52;10.95
44027;BME280;29696;55.698;37.460;2023-05-12T08:09:35;100044.50;;;36.03;11.93
44027;BME280;29696;55.698;37.460;2023-05-12T08:12:01;100048.44;;;35.68;11.26
44027;BME280;29696;55.698;37.460;2023-05-12T08:14:27;100036.06;;;35.07;11.42
44027;BME280;29696;55.698;37.460;2023-05-12T08:16:54;100038.72;;;34.78;11.01
44027;BME280;29696;55.698;37.460;2023-05-12T08:19:20;100033.72;;;34.36;11.03
44027;BME280;29696;55.698;37.460;2023-05-12T08:21:47;100033.97;;;33.03;11.23
44027;BME280;29696;55.698;37.460;2023-05-12T08:24:13;100042.13;;;32.09;12.73
44027;BME280;29696;55.698;37.460;2023-05-12T08:26:39;100042.97;;;31.62;13.15
44027;BME280;29696;55.698;37.460;2023-05-12T08:29:06;100036.88;;;31.55;14.42
44027;BME280;29696;55.698;37.460;2023-05-12T08:31:33;100037.22;;;31.26;13.57
44027;BME280;29696;55.698;37.460;2023-05-12T08:34:00;100036.16;;;30.51;14.02
44027;BME280;29696;55.698;37.460;2023-05-12T08:36:26;100033.72;;;29.50;14.52
44027;BME280;29696;55.698;37.460;2023-05-12T08:38:52;100032.97;;;28.35;14.84
44027;BME280;29696;55.698;37.460;2023-05-12T08:41:47;100034.97;;;28.39;15.28
44027;BME280;29696;55.698;37.460;2023-05-12T08:44:17;100034.44;;;26.11;16.85
44027;BME280;29696;55.698;37.460;2023-05-12T08:46:45;100027.13;;;25.49;18.67
44027;BME280;29696;55.698;37.460;2023-05-12T08:49:13;100015.78;;;25.09;18.33
44027;BME280;29696;55.698;37.460;2023-05-12T08:51:43;100020.28;;;24.90;19.76
44027;BME280;29696;55.698;37.460;2023-05-12T08:54:11;100017.63;;;24.83;21.25
44027;BME280;29696;55.698;37.460;2023-05-12T08:56:41;100008.03;;;24.88;21.01
44027;BME280;29696;55.698;37.460;2023-05-12T08:59:08;100008.38;;;24.66;20.05
44027;BME280;29696;55.698;37.460;2023-05-12T09:01:35;100015.59;;;24.34;19.10
44027;BME280;29696;55.698;37.460;2023-05-12T09:04:05;100012.44;;;24.37;20.21
44027;BME280;29696;55.698;37.460;2023-05-12T09:06:32;100001.69;;;24.30;19.82
44027;BME280;29696;55.698;37.460;2023-05-12T09:08:59;100004.59;;;24.29;20.01
44027;BME280;29696;55.698;37.460;2023-05-12T09:11:25;99999.50;;;24.01;19.74
44027;BME280;29696;55.698;37.460;2023-05-12T09:14:17;100003.81;;;24.15;19.21
44027;BME280;29696;55.698;37.460;2023-05-12T09:16:46;99997.50;;;23.56;20.01
44027;BME280;29696;55.698;37.460;2023-05-12T09:19:18;99998.16;;;23.38;20.71
44027;BME280;29696;55.698;37.460;2023-05-12T09:21:46;100001.06;;;23.10;20.26
44027;BME280;29696;55.698;37.460;2023-05-12T09:24:13;99997.34;;;23.11;20.46
44027;BME280;29696;55.698;37.460;2023-05-12T09:26:49;99998.78;;;23.40;20.98
44027;BME280;29696;55.698;37.460;2023-05-12T09:29:16;99997.13;;;23.39;20.71
44027;BME280;29696;55.698;37.460;2023-05-12T09:31:54;100002.28;;;23.67;21.54
44027;BME280;29696;55.698;37.460;2023-05-12T09:34:34;99997.28;;;23.78;20.71
44027;BME280;29696;55.698;37.460;2023-05-12T09:37:04;99992.34;;;23.41;19.96
44027;BME280;29696;55.698;37.460;2023-05-12T09:39:31;99984.88;;;23.30;20.18
44027;BME280;29696;55.698;37.460;2023-05-12T09:41:58;99992.78;;;23.25;20.89
44027;BME280;29696;55.698;37.460;2023-05-12T09:44:25;99983.03;;;23.31;21.10
44027;BME280;29696;55.698;37.460;2023-05-12T09:46:54;99988.63;;;23.42;20.08
44027;BME280;29696;55.698;37.460;2023-05-12T09:49:22;99997.72;;;23.48;20.65
44027;BME280;29696;55.698;37.460;2023-05-12T09:51:55;99991.09;;;23.64;20.73
44027;BME280;29696;55.698;37.460;2023-05-12T09:54:46;99983.72;;;24.04;19.91
44027;BME280;29696;55.698;37.460;2023-05-12T09:57:15;99993.56;;;23.65;20.32
44027;BME280;29696;55.698;37.460;2023-05-12T09:59:42;99993.63;;;23.19;20.57
44027;BME280;29696;55.698;37.460;2023-05-12T10:02:12;99996.03;;;22.94;21.05
44027;BME280;29696;55.698;37.460;2023-05-12T10:05:02;99996.09;;;23.07;21.46
44027;BME280;29696;55.698;37.460;2023-05-12T10:07:31;99980.28;;;22.84;23.05
44027;BME280;29696;55.698;37.460;2023-05-12T10:10:00;99979.25;;;22.78;21.64
44027;BME280;29696;55.698;37.460;2023-05-12T10:12:32;99973.50;;;22.95;22.00
44027;BME280;29696;55.698;37.460;2023-05-12T10:15:01;99973.09;;;22.98;21.91
44027;BME280;29696;55.698;37.460;2023-05-12T10:17:31;99971.41;;;22.97;21.78
44027;BME280;29696;55.698;37.460;2023-05-12T10:20:00;99972.44;;;23.09;21.91
44027;BME280;29696;55.698;37.460;2023-05-12T10:22:32;99975.34;;;23.21;21.33
44027;BME280;29696;55.698;37.460;2023-05-12T10:25:00;99969.56;;;23.31;21.68
44027;BME280;29696;55.698;37.460;2023-05-12T10:27:31;99981.59;;;23.28;21.08
44027;BME280;29696;55.698;37.460;2023-05-12T10:30:00;99987.78;;;22.89;20.85
44027;BME280;29696;55.698;37.460;2023-05-12T10:32:27;99982.09;;;22.50;21.11
44027;BME280;29696;55.698;37.460;2023-05-12T10:34:53;99969.63;;;22.36;21.27
44027;BME280;29696;55.698;37.460;2023-05-12T10:37:22;99973.31;;;22.28;21.52
44027;BME280;29696;55.698;37.460;2023-05-12T10:39:50;99974.78;;;22.31;22.03
44027;BME280;29696;55.698;37.460;2023-05-12T10:42:21;99969.88;;;22.48;22.05
44027;BME280;29696;55.698;37.460;2023-05-12T10:44:52;99979.88;;;22.94;21.68
44027;BME280;29696;55.698;37.460;2023-05-12T10:47:34;99983.63;;;22.93;22.88
44027;BME280;29696;55.698;37.460;2023-05-12T10:50:01;99977.03;;;23.02;21.89
44027;BME280;29696;55.698;37.460;2023-05-12T10:52:31;99981.81;;;23.07;21.76
44027;BME280;29696;55.698;37.460;2023-05-12T10:55:02;99982.63;;;23.14;21.86
44027;BME280;29696;55.698;37.460;2023-05-12T10:57:32;99971.84;;;23.07;22.44
44027;BME280;29696;55.698;37.460;2023-05-12T10:59:59;99979.50;;;22.97;22.12
44027;BME280;29696;55.698;37.460;2023-05-12T11:02:27;99977.84;;;22.96;22.09
44027;BME280;29696;55.698;37.460;2023-05-12T11:04:58;99979.47;;;22.90;22.04
44027;BME280;29696;55.698;37.460;2023-05-12T11:07:29;99966.88;;;22.97;21.54
44027;BME280;29696;55.698;37.460;2023-05-12T11:10:02;99982.81;;;23.06;22.26
44027;BME280;29696;55.698;37.460;2023-05-12T11:12:33;99971.38;;;22.90;22.28
44027;BME280;29696;55.698;37.460;2023-05-12T11:15:02;99982.81;;;22.99;22.15
44027;BME280;29696;55.698;37.460;2023-05-12T11:17:32;99966.22;;;22.89;21.33
44027;BME280;29696;55.698;37.460;2023-05-12T11:19:58;99975.53;;;22.79;22.18
44027;BME280;29696;55.698;37.460;2023-05-12T11:22:26;99975.31;;;22.68;22.06
44027;BME280;29696;55.698;37.460;2023-05-12T11:24:52;99984.63;;;22.65;23.20
44027;BME280;29696;55.698;37.460;2023-05-12T11:27:20;99977.56;;;22.64;22.87
44027;BME280;29696;55.698;37.460;2023-05-12T11:29:58;99974.06;;;22.84;22.17
44027;BME280;29696;55.698;37.460;2023-05-12T11:32:25;99967.41;;;22.60;22.29
44027;BME280;29696;55.698;37.460;2023-05-12T11:34:51;99964.94;;;22.65;22.51
44027;BME280;29696;55.698;37.460;2023-05-12T11:37:18;99953.94;;;22.73;22.69
44027;BME280;29696;55.698;37.460;2023-05-12T11:39:46;99959.16;;;22.81;23.74
44027;BME280;29696;55.698;37.460;2023-05-12T11:42:12;99956.03;;;22.84;23.13
44027;BME280;29696;55.698;37.460;2023-05-12T11:44:46;99956.69;;;23.06;23.37
44027;BME280;29696;55.698;37.460;2023-05-12T11:47:13;99950.88;;;23.02;21.91
44027;BME280;29696;55.698;37.460;2023-05-12T11:50:06;99940.09;;;23.29;21.37
44027;BME280;29696;55.698;37.460;2023-05-12T11:52:33;99947.78;;;22.99;22.35
44027;BME280;29696;55.698;37.460;2023-05-12T11:54:59;99930.59;;;23.07;22.81
44027;BME280;29696;55.698;37.460;2023-05-12T11:57:28;99942.19;;;23.07;22.05
44027;BME280;29696;55.698;37.460;2023-05-12T11:59:57;99943.22;;;23.13;21.71
44027;BME280;29696;55.698;37.460;2023-05-12T12:02:23;99947.19;;;23.04;22.14
44027;BME280;29696;55.698;37.460;2023-05-12T12:04:50;99940.53;;;22.99;21.59
44027;BME280;29696;55.698;37.460;2023-05-12T12:07:36;99939.91;;;23.17;21.68
44027;BME280;29696;55.698;37.460;2023-05-12T12:10:13;99931.63;;;23.19;22.02
44027;BME280;29696;55.698;37.460;2023-05-12T12:12:40;99939.94;;;22.97;21.86
44027;BME280;29696;55.698;37.460;2023-05-12T12:15:08;99932.22;;;22.81;21.44
44027;BME280;29696;55.698;37.460;2023-05-12T12:17:34;99930.34;;;22.68;21.80
44027;BME280;29696;55.698;37.460;2023-05-12T12:20:01;99929.47;;;22.48;21.61
44027;BME280;29696;55.698;37.460;2023-05-12T12:22:31;99926.38;;;22.44;22.90
44027;BME280;29696;55.698;37.460;2023-05-12T12:25:00;99919.47;;;22.28;22.01
44027;BME280;29696;55.698;37.460;2023-05-12T12:27:26;99913.25;;;22.21;22.56
44027;BME280;29696;55.698;37.460;2023-05-12T12:29:53;99915.13;;;22.27;22.27
44027;BME280;29696;55.698;37.460;2023-05-12T12:32:19;99913.28;;;22.28;22.27
44027;BME280;29696;55.698;37.460;2023-05-12T12:34:46;99926.38;;;22.44;22.34
44027;BME280;29696;55.698;37.460;2023-05-12T12:37:13;99914.59;;;22.59;22.14
44027;BME280;29696;55.698;37.460;2023-05-12T12:39:40;99922.25;;;22.75;22.21
44027;BME280;29696;55.698;37.460;2023-05-12T12:42:06;99923.50;;;22.79;21.69
44027;BME280;29696;55.698;37.460;2023-05-12T12:44:33;99921.25;;;22.83;20.97
44027;BME280;29696;55.698;37.460;2023-05-12T12:47:00;99916.25;;;22.86;21.64
44027;BME280;29696;55.698;37.460;2023-05-12T12:49:26;99911.06;;;22.85;20.91
44027;BME280;29696;55.698;37.460;2023-05-12T12:51:53;99918.72;;;22.88;21.57
44027;BME280;29696;55.698;37.460;2023-05-12T12:54:20;99907.56;;;22.71;21.75
44027;BME280;29696;55.698;37.460;2023-05-12T12:56:46;99903.81;;;22.59;21.58